Terminal Aerodrome Forecast
Issued by NWS Wilmington, OH

Current Version | Previous Version | Graphics & Text | Print | Product List | Glossary On
Versions: 1 2 3 4 5 6 7 8 9 10 11 12 13 14 15 16 17 18 19
000
FTUS41 KILN 250530
TAFILN
TAF
KILN 250530Z 2506/2606 27014G24KT P6SM OVC040
     FM251400 26017G27KT P6SM OVC025
     FM252000 27017G27KT P6SM OVC035
     FM260100 28012KT P6SM BKN040=

USA.gov is the U.S. government's official web portal to all federal, state and local government web resources and services.